createdAt,value
2022-11-20T00:01:26.772Z,89.59
2022-11-20T00:03:56.130Z,89.54
2022-11-20T00:06:25.168Z,89.77
2022-11-20T00:08:55.966Z,90.16
2022-11-20T00:11:26.002Z,90.15
2022-11-20T00:13:58.084Z,89.72
2022-11-20T00:16:29.015Z,89.82
2022-11-20T00:18:57.160Z,89.84
2022-11-20T00:21:27.269Z,90.31
2022-11-20T00:23:57.128Z,90.31
2022-11-20T00:26:26.951Z,90.27
2022-11-20T00:28:58.045Z,90.50
2022-11-20T00:31:27.143Z,90.18
2022-11-20T00:33:55.637Z,90.46
2022-11-20T00:36:25.332Z,90.68
2022-11-20T00:38:54.514Z,90.72
2022-11-20T00:41:23.454Z,90.90
2022-11-20T00:43:53.155Z,91.21
2022-11-20T00:46:25.181Z,91.28
2022-11-20T00:48:53.330Z,91.23
2022-11-20T00:51:23.157Z,90.91
2022-11-20T00:53:51.451Z,90.69
2022-11-20T00:56:21.459Z,90.40
2022-11-20T00:58:51.171Z,90.12
2022-11-20T01:01:20.954Z,90.04
2022-11-20T01:03:51.791Z,89.24
2022-11-20T01:06:22.163Z,89.30
2022-11-20T01:08:51.135Z,89.34
2022-11-20T01:11:21.511Z,89.14
2022-11-20T01:13:51.982Z,89.01
2022-11-20T01:16:22.026Z,89.13
2022-11-20T01:18:55.661Z,88.70
2022-11-20T01:21:25.877Z,88.61
2022-11-20T01:23:54.301Z,88.50
2022-11-20T01:26:25.062Z,88.22
2022-11-20T01:28:53.952Z,87.86
2022-11-20T01:31:24.627Z,87.67
2022-11-20T01:33:55.920Z,87.68
2022-11-20T01:36:26.513Z,87.53
2022-11-20T01:38:55.634Z,87.43
2022-11-20T01:41:38.935Z,87.14
2022-11-20T01:44:08.005Z,87.16
2022-11-20T01:46:39.005Z,86.91
2022-11-20T01:49:16.192Z,86.65
2022-11-20T01:51:48.054Z,86.59
2022-11-20T01:54:20.917Z,86.32
2022-11-20T01:56:53.448Z,86.09
2022-11-20T01:59:22.257Z,86.19
2022-11-20T02:01:50.676Z,86.38
2022-11-20T02:04:21.604Z,86.21
2022-11-20T02:06:56.377Z,86.08
2022-11-20T02:09:24.816Z,86.00
2022-11-20T02:11:53.611Z,85.88
2022-11-20T02:14:21.502Z,85.75
2022-11-20T02:16:51.034Z,85.96
2022-11-20T02:19:28.214Z,85.53
2022-11-20T02:22:04.629Z,85.47
2022-11-20T02:24:34.400Z,85.68
2022-11-20T02:27:04.667Z,85.42
2022-11-20T02:29:38.691Z,85.52
2022-11-20T02:32:07.269Z,85.38
2022-11-20T02:34:35.415Z,85.38
2022-11-20T02:37:04.076Z,85.35
2022-11-20T02:39:33.957Z,85.36
2022-11-20T02:42:04.187Z,85.22
2022-11-20T02:44:32.367Z,85.37
2022-11-20T02:47:00.733Z,85.15
2022-11-20T02:49:28.908Z,85.22
2022-11-20T02:51:57.095Z,85.34
2022-11-20T02:54:25.465Z,85.20
2022-11-20T02:56:55.778Z,85.03
2022-11-20T02:59:24.339Z,84.97
2022-11-20T03:01:52.636Z,85.25
2022-11-20T03:04:20.930Z,85.17
2022-11-20T03:06:49.004Z,85.27
2022-11-20T03:09:17.330Z,85.06
2022-11-20T03:11:45.435Z,85.01
2022-11-20T03:14:15.236Z,84.90
2022-11-20T03:16:43.594Z,85.04
2022-11-20T03:19:11.766Z,85.29
2022-11-20T03:21:39.928Z,84.91
2022-11-20T03:24:09.470Z,84.85
2022-11-20T03:26:37.577Z,84.55
2022-11-20T03:29:07.083Z,84.27
2022-11-20T03:31:41.389Z,83.97
2022-11-20T03:34:10.843Z,83.92
2022-11-20T03:36:40.067Z,83.96
2022-11-20T03:39:08.951Z,83.78
2022-11-20T03:41:39.693Z,83.97
2022-11-20T03:44:09.979Z,83.65
2022-11-20T03:46:39.878Z,83.90
2022-11-20T03:49:08.292Z,83.88
2022-11-20T03:51:38.048Z,83.67
2022-11-20T03:54:08.228Z,83.54
2022-11-20T03:56:38.171Z,83.39
2022-11-20T03:59:06.653Z,83.28
2022-11-20T04:01:36.358Z,82.35
2022-11-20T04:04:06.971Z,80.47
2022-11-20T04:06:37.391Z,78.82
2022-11-20T04:09:06.157Z,77.34
2022-11-20T04:11:35.675Z,77.21
2022-11-20T04:14:05.929Z,76.43
2022-11-20T04:16:36.144Z,76.52
2022-11-20T04:19:08.507Z,76.53
2022-11-20T04:21:36.755Z,76.90
2022-11-20T04:24:05.519Z,77.11
2022-11-20T04:26:33.902Z,77.17
2022-11-20T04:29:02.774Z,77.32
2022-11-20T04:31:33.025Z,77.20
2022-11-20T04:34:02.290Z,77.39
2022-11-20T04:36:32.575Z,77.15
2022-11-20T04:39:02.397Z,77.52
2022-11-20T04:41:32.975Z,76.96
2022-11-20T04:44:04.529Z,77.29
2022-11-20T04:46:34.638Z,76.99
2022-11-20T04:49:02.981Z,77.00
2022-11-20T04:51:32.920Z,77.34
2022-11-20T04:54:01.108Z,77.71
2022-11-20T04:56:29.323Z,77.55
2022-11-20T04:58:57.433Z,77.78
2022-11-20T05:01:26.674Z,77.77
2022-11-20T05:03:55.077Z,78.34
2022-11-20T05:06:23.781Z,78.20
2022-11-20T05:08:53.621Z,78.47
2022-11-20T05:11:23.243Z,78.60
2022-11-20T05:13:52.590Z,78.60
2022-11-20T05:16:23.256Z,78.61
2022-11-20T05:18:52.868Z,78.60
2022-11-20T05:21:21.236Z,78.45
2022-11-20T05:23:49.645Z,78.62
2022-11-20T05:26:20.857Z,78.38
2022-11-20T05:28:49.642Z,78.20
2022-11-20T05:31:25.077Z,78.13
2022-11-20T05:33:55.480Z,78.23
2022-11-20T05:36:23.620Z,78.16
2022-11-20T05:38:54.444Z,78.02
2022-11-20T05:41:27.178Z,78.05
2022-11-20T05:43:55.341Z,77.66
2022-11-20T05:46:28.244Z,77.77
2022-11-20T05:48:58.158Z,77.55
2022-11-20T05:51:27.423Z,77.58
2022-11-20T05:53:55.950Z,77.80
2022-11-20T05:56:24.611Z,77.67
2022-11-20T05:58:54.225Z,77.50
2022-11-20T06:01:24.403Z,77.41
2022-11-20T06:03:53.209Z,77.59
2022-11-20T06:06:21.943Z,77.22
2022-11-20T06:08:50.981Z,77.42
2022-11-20T06:11:19.778Z,77.48
2022-11-20T06:13:48.388Z,77.22
2022-11-20T06:16:20.814Z,77.31
2022-11-20T06:18:49.102Z,77.25
2022-11-20T06:21:19.564Z,77.22
2022-11-20T06:23:48.506Z,77.35
2022-11-20T06:26:18.236Z,77.09
2022-11-20T06:28:47.011Z,76.93
2022-11-20T06:31:18.001Z,76.59
2022-11-20T06:33:46.330Z,76.48
2022-11-20T06:36:16.831Z,76.51
2022-11-20T06:38:45.235Z,76.08
2022-11-20T06:41:15.632Z,75.60
2022-11-20T06:43:44.488Z,75.34
2022-11-20T06:46:14.536Z,74.91
2022-11-20T06:48:44.045Z,74.55
2022-11-20T06:51:12.459Z,74.34
2022-11-20T06:53:41.118Z,73.95
2022-11-20T06:56:09.707Z,74.10
2022-11-20T06:58:38.515Z,74.08
2022-11-20T07:01:08.437Z,74.26
2022-11-20T07:03:37.790Z,74.84
2022-11-20T07:06:08.868Z,74.81
2022-11-20T07:08:37.814Z,74.99
2022-11-20T07:11:08.326Z,75.18
2022-11-20T07:13:37.010Z,75.68
2022-11-20T07:16:07.642Z,75.72
2022-11-20T07:18:36.007Z,75.93
2022-11-20T07:21:04.957Z,75.99
2022-11-20T07:23:34.620Z,76.04
2022-11-20T07:26:05.424Z,76.01
2022-11-20T07:28:33.652Z,76.12
2022-11-20T07:31:01.862Z,76.04
2022-11-20T07:33:30.178Z,75.96
2022-11-20T07:36:00.313Z,76.10
2022-11-20T07:38:28.611Z,76.04
2022-11-20T07:40:58.916Z,76.20
2022-11-20T07:43:27.568Z,76.21
2022-11-20T07:45:57.502Z,76.04
2022-11-20T07:48:25.816Z,76.14
2022-11-20T07:50:56.177Z,76.01
2022-11-20T07:53:24.601Z,76.08
2022-11-20T07:55:53.486Z,75.49
2022-11-20T07:58:23.936Z,75.14
2022-11-20T08:00:52.328Z,75.41
2022-11-20T08:03:24.943Z,75.18
2022-11-20T08:05:53.650Z,75.15
2022-11-20T08:08:22.086Z,75.31
2022-11-20T08:10:50.232Z,74.97
2022-11-20T08:13:44.241Z,74.79
2022-11-20T08:16:14.086Z,74.91
2022-11-20T08:18:42.202Z,74.73
2022-11-20T08:21:10.362Z,74.65
2022-11-20T08:23:38.516Z,74.01
2022-11-20T08:26:06.881Z,73.67
2022-11-20T08:28:35.069Z,72.45
2022-11-20T08:31:04.416Z,71.03
2022-11-20T08:33:34.678Z,69.51
2022-11-20T08:36:03.500Z,67.24
2022-11-20T08:38:32.394Z,66.48
2022-11-20T08:41:18.671Z,66.60
2022-11-20T08:43:47.093Z,66.92
2022-11-20T08:46:15.898Z,67.32
2022-11-20T08:48:45.833Z,67.53
2022-11-20T08:51:14.512Z,67.85
2022-11-20T08:53:42.947Z,68.44
2022-11-20T08:56:12.081Z,68.24
2022-11-20T08:59:09.670Z,68.39
2022-11-20T09:01:30.204Z,68.53
2022-11-20T09:04:00.823Z,68.33
2022-11-20T09:06:29.146Z,68.23
2022-11-20T09:09:00.716Z,68.45
2022-11-20T09:11:32.306Z,67.52
2022-11-20T09:14:01.166Z,67.12
2022-11-20T09:16:29.492Z,65.08
2022-11-20T09:19:28.283Z,61.26
2022-11-20T09:21:47.551Z,60.63
2022-11-20T09:24:15.684Z,58.94
2022-11-20T09:26:43.802Z,57.86
2022-11-20T09:29:11.890Z,57.18
2022-11-20T09:31:40.292Z,58.80
2022-11-20T09:34:10.954Z,60.21
2022-11-20T09:36:39.239Z,62.02
2022-11-20T09:39:07.318Z,63.93
2022-11-20T09:42:08.804Z,61.80
2022-11-20T09:45:03.982Z,61.71
2022-11-20T09:47:47.025Z,61.63
2022-11-20T09:50:28.193Z,60.46
2022-11-20T09:53:11.909Z,61.08
2022-11-20T09:55:41.311Z,60.41
2022-11-20T09:58:16.161Z,59.06
2022-11-20T10:00:44.553Z,57.38
2022-11-20T10:03:19.083Z,56.73
2022-11-20T10:05:53.368Z,55.13
2022-11-20T10:08:26.876Z,54.53
2022-11-20T10:11:01.222Z,55.48
2022-11-20T10:13:42.574Z,54.62
2022-11-20T10:16:21.193Z,53.66
2022-11-20T10:19:06.720Z,54.94
2022-11-20T10:21:43.426Z,55.41
2022-11-20T10:24:32.210Z,55.52
2022-11-20T10:27:08.796Z,55.25
2022-11-20T10:29:40.370Z,54.93
2022-11-20T10:32:16.688Z,54.14
2022-11-20T10:34:53.183Z,55.00
2022-11-20T10:37:25.689Z,56.55
2022-11-20T10:40:01.869Z,57.94
2022-11-20T10:42:37.985Z,58.96
2022-11-20T10:45:39.461Z,59.56
2022-11-20T10:48:18.036Z,60.26
2022-11-20T10:51:07.549Z,60.95
2022-11-20T10:53:46.392Z,61.10
2022-11-20T10:56:21.727Z,62.02
2022-11-20T10:59:05.012Z,61.83
2022-11-20T11:01:42.724Z,62.62
2022-11-20T11:04:33.399Z,62.48
2022-11-20T11:07:11.117Z,62.82
2022-11-20T11:09:43.644Z,63.08
2022-11-20T11:12:13.488Z,63.28
2022-11-20T11:14:47.085Z,63.06
2022-11-20T11:17:27.978Z,63.42
2022-11-20T11:20:01.214Z,62.89
2022-11-20T11:22:31.636Z,63.64
2022-11-20T11:25:00.078Z,63.68
2022-11-20T11:27:29.185Z,63.71
2022-11-20T11:30:17.078Z,64.04
2022-11-20T11:32:47.292Z,64.01
2022-11-20T11:35:24.850Z,64.18
2022-11-20T11:37:55.200Z,64.48
2022-11-20T11:40:28.108Z,64.12
2022-11-20T11:43:01.135Z,64.19
2022-11-20T11:45:28.736Z,64.13
2022-11-20T11:48:00.492Z,63.86
2022-11-20T11:50:30.521Z,63.82
2022-11-20T11:53:10.347Z,63.71
2022-11-20T11:55:45.251Z,62.96
2022-11-20T11:58:40.791Z,62.99
2022-11-20T12:01:20.239Z,63.59
2022-11-20T12:03:57.804Z,62.75
2022-11-20T12:06:31.274Z,63.11
2022-11-20T12:09:04.338Z,63.40
2022-11-20T12:11:40.031Z,63.10
2022-11-20T12:14:16.769Z,62.57
2022-11-20T12:16:45.008Z,62.28
2022-11-20T12:19:16.053Z,62.49
2022-11-20T12:22:00.589Z,62.68
2022-11-20T12:24:44.755Z,62.50
2022-11-20T12:27:43.431Z,62.89
2022-11-20T12:30:13.951Z,63.25
2022-11-20T12:33:21.501Z,63.34
2022-11-20T12:36:08.824Z,63.67
2022-11-20T12:39:02.533Z,64.34
2022-11-20T12:42:07.252Z,64.56
2022-11-20T12:45:13.810Z,65.16
2022-11-20T12:48:06.886Z,65.36
2022-11-20T12:51:08.462Z,65.66
2022-11-20T12:53:45.806Z,65.93
2022-11-20T12:56:23.688Z,64.88
2022-11-20T12:59:04.959Z,64.49
2022-11-20T13:01:45.183Z,64.98
2022-11-20T13:04:34.635Z,65.10
2022-11-20T13:07:04.662Z,65.60
2022-11-20T13:09:36.179Z,65.99
2022-11-20T13:12:10.981Z,66.62
2022-11-20T13:14:45.070Z,66.52
2022-11-20T13:17:18.391Z,66.84
2022-11-20T13:19:51.749Z,66.35
2022-11-20T13:22:27.861Z,66.47
2022-11-20T13:24:57.980Z,66.87
2022-11-20T13:27:26.673Z,66.91
2022-11-20T13:30:18.318Z,67.27
2022-11-20T13:32:55.077Z,66.75
2022-11-20T13:35:37.384Z,66.92
2022-11-20T13:38:08.998Z,67.03
2022-11-20T13:40:41.409Z,67.00
2022-11-20T13:43:23.513Z,67.14
2022-11-20T13:46:02.997Z,66.61
2022-11-20T13:48:34.488Z,67.21
2022-11-20T13:51:28.136Z,67.31
2022-11-20T13:54:28.527Z,67.74
2022-11-20T13:57:08.475Z,67.85
2022-11-20T13:59:49.120Z,67.46
2022-11-20T14:02:19.056Z,66.63
2022-11-20T14:04:50.834Z,66.56
2022-11-20T14:07:21.200Z,66.08
2022-11-20T14:09:54.511Z,66.19
2022-11-20T14:12:29.391Z,66.42
2022-11-20T14:14:57.811Z,66.49
2022-11-20T14:17:32.444Z,66.53
2022-11-20T14:20:04.895Z,66.57
2022-11-20T14:22:32.849Z,67.01
2022-11-20T14:25:08.480Z,66.88
2022-11-20T14:27:39.931Z,67.19
2022-11-20T14:30:15.062Z,67.52
2022-11-20T14:32:45.046Z,67.21
2022-11-20T14:35:20.619Z,67.36
2022-11-20T14:37:50.042Z,67.55
2022-11-20T14:40:31.888Z,67.44
2022-11-20T14:43:01.875Z,67.95
2022-11-20T14:45:30.479Z,67.92
2022-11-20T14:48:00.464Z,67.86
2022-11-20T14:50:31.263Z,68.23
2022-11-20T14:53:01.238Z,68.54
2022-11-20T14:55:33.203Z,68.64
2022-11-20T14:58:05.212Z,68.76
2022-11-20T15:00:35.277Z,68.20
2022-11-20T15:03:04.731Z,68.24
2022-11-20T15:05:48.152Z,68.33
2022-11-20T15:08:17.297Z,68.29
2022-11-20T15:10:49.308Z,68.53
2022-11-20T15:13:26.978Z,69.01
2022-11-20T15:15:57.378Z,68.79
2022-11-20T15:18:28.948Z,69.06
2022-11-20T15:20:58.726Z,69.52
2022-11-20T15:23:28.653Z,69.85
2022-11-20T15:25:57.485Z,69.54
2022-11-20T15:28:32.495Z,69.99
2022-11-20T15:31:01.611Z,70.18
2022-11-20T15:33:29.802Z,70.67
2022-11-20T15:35:58.557Z,70.36
2022-11-20T15:38:26.763Z,70.66
2022-11-20T15:40:54.906Z,70.59
2022-11-20T15:43:23.068Z,70.38
2022-11-20T15:45:55.123Z,70.51
2022-11-20T15:48:28.387Z,70.51
2022-11-20T15:51:00.597Z,70.58
2022-11-20T15:53:28.999Z,70.79
2022-11-20T15:55:57.205Z,70.91
2022-11-20T15:58:25.862Z,70.84
2022-11-20T16:00:56.049Z,70.75
2022-11-20T16:03:24.539Z,71.04
2022-11-20T16:05:52.708Z,71.29
2022-11-20T16:08:20.852Z,71.36
2022-11-20T16:10:49.034Z,71.33
2022-11-20T16:13:37.415Z,71.25
2022-11-20T16:16:11.138Z,71.31
2022-11-20T16:18:39.621Z,71.46
2022-11-20T16:21:14.187Z,71.60
2022-11-20T16:23:43.549Z,71.83
2022-11-20T16:26:12.888Z,71.97
2022-11-20T16:28:41.891Z,72.25
2022-11-20T16:31:12.927Z,72.40
2022-11-20T16:33:41.271Z,72.33
2022-11-20T16:36:11.515Z,72.46
2022-11-20T16:38:40.008Z,72.62
2022-11-20T16:41:14.480Z,72.36
2022-11-20T16:43:50.124Z,72.39
2022-11-20T16:46:21.994Z,72.37
2022-11-20T16:48:55.250Z,72.50
2022-11-20T16:51:24.256Z,72.55
2022-11-20T16:53:53.432Z,72.61
2022-11-20T16:56:23.928Z,72.42
2022-11-20T16:58:52.977Z,72.36
2022-11-20T17:01:24.739Z,72.47
2022-11-20T17:03:57.307Z,72.67
2022-11-20T17:06:27.896Z,72.96
2022-11-20T17:08:57.065Z,72.89
2022-11-20T17:11:27.207Z,72.96
2022-11-20T17:13:56.574Z,73.13
2022-11-20T17:16:26.359Z,73.32
2022-11-20T17:18:59.752Z,73.40
2022-11-20T17:21:32.191Z,73.55
2022-11-20T17:24:02.691Z,73.51
2022-11-20T17:26:31.032Z,73.43
2022-11-20T17:29:01.999Z,73.59
2022-11-20T17:31:33.635Z,73.45
2022-11-20T17:34:02.314Z,74.02
2022-11-20T17:36:31.126Z,74.35
2022-11-20T17:38:59.627Z,74.20
2022-11-20T17:41:29.593Z,74.09
2022-11-20T17:43:59.262Z,74.25
2022-11-20T17:46:28.875Z,74.32
2022-11-20T17:48:58.702Z,74.42
2022-11-20T17:51:29.352Z,74.37
2022-11-20T17:53:59.895Z,74.42
2022-11-20T17:56:49.786Z,74.46
2022-11-20T17:59:19.697Z,74.95
2022-11-20T18:01:47.991Z,74.84
2022-11-20T18:04:18.009Z,74.68
2022-11-20T18:06:46.847Z,74.63
2022-11-20T18:09:15.652Z,74.58
2022-11-20T18:11:44.724Z,74.67
2022-11-20T18:14:29.377Z,74.94
2022-11-20T18:16:59.214Z,74.90
2022-11-20T18:19:32.797Z,74.77
2022-11-20T18:22:01.883Z,74.87
2022-11-20T18:24:30.240Z,74.77
2022-11-20T18:26:58.988Z,74.82
2022-11-20T18:29:28.096Z,74.93
2022-11-20T18:31:56.509Z,75.49
2022-11-20T18:34:25.376Z,75.57
2022-11-20T18:36:55.279Z,75.38
2022-11-20T18:39:24.246Z,75.57
2022-11-20T18:42:09.784Z,75.65
2022-11-20T18:44:54.000Z,75.52
2022-11-20T18:47:24.630Z,75.74
2022-11-20T18:49:55.081Z,75.85
2022-11-20T18:52:26.562Z,75.55
2022-11-20T18:54:55.331Z,75.93
2022-11-20T18:57:25.918Z,76.00
2022-11-20T18:59:54.904Z,76.45
2022-11-20T19:02:23.598Z,76.30
2022-11-20T19:04:51.740Z,76.22
2022-11-20T19:07:20.045Z,76.39
2022-11-20T19:09:52.776Z,76.26
2022-11-20T19:12:21.917Z,76.47
2022-11-20T19:14:51.169Z,76.69
2022-11-20T19:17:19.402Z,76.69
2022-11-20T19:19:49.683Z,76.82
2022-11-20T19:22:17.918Z,76.83
2022-11-20T19:24:46.588Z,76.73
2022-11-20T19:27:16.268Z,77.27
2022-11-20T19:29:44.496Z,77.08
2022-11-20T19:32:12.725Z,76.93
2022-11-20T19:34:41.642Z,77.01
2022-11-20T19:37:09.969Z,76.78
2022-11-20T19:39:38.234Z,76.89
2022-11-20T19:42:06.819Z,76.99
2022-11-20T19:44:36.725Z,76.99
2022-11-20T19:47:08.997Z,77.14
2022-11-20T19:49:41.837Z,77.37
2022-11-20T19:52:10.114Z,77.27
2022-11-20T19:54:38.548Z,77.36
2022-11-20T19:57:07.089Z,77.49
2022-11-20T19:59:37.037Z,77.42
2022-11-20T20:02:05.323Z,77.09
2022-11-20T20:04:33.687Z,77.39
2022-11-20T20:07:04.062Z,77.60
2022-11-20T20:09:34.328Z,77.74
2022-11-20T20:12:02.555Z,78.11
2022-11-20T20:14:32.055Z,78.14
2022-11-20T20:17:02.066Z,78.17
2022-11-20T20:19:30.413Z,78.03
2022-11-20T20:21:58.629Z,78.16
2022-11-20T20:24:26.810Z,78.21
2022-11-20T20:26:58.147Z,78.59
2022-11-20T20:29:27.529Z,78.43
2022-11-20T20:31:56.010Z,78.78
2022-11-20T20:34:29.689Z,78.93
2022-11-20T20:36:58.092Z,78.84
2022-11-20T20:39:26.383Z,79.42
2022-11-20T20:41:54.616Z,79.56
2022-11-20T20:44:40.312Z,79.28
2022-11-20T20:47:08.560Z,79.02
2022-11-20T20:49:38.340Z,79.32
2022-11-20T20:52:08.351Z,78.88
2022-11-20T20:54:36.507Z,78.85
2022-11-20T20:57:04.870Z,79.16
2022-11-20T20:59:33.388Z,78.99
2022-11-20T21:02:01.592Z,79.07
2022-11-20T21:04:29.800Z,79.07
2022-11-20T21:06:59.713Z,79.24
2022-11-20T21:09:27.937Z,79.71
2022-11-20T21:11:56.097Z,79.54
2022-11-20T21:14:24.578Z,79.63
2022-11-20T21:16:52.889Z,79.64
2022-11-20T21:19:21.135Z,79.71
2022-11-20T21:22:00.023Z,79.51
2022-11-20T21:24:31.656Z,79.38
2022-11-20T21:27:01.144Z,79.56
2022-11-20T21:29:30.331Z,79.58
2022-11-20T21:31:59.254Z,79.39
2022-11-20T21:34:27.736Z,79.31
2022-11-20T21:36:56.232Z,79.56
2022-11-20T21:39:25.410Z,79.47
2022-11-20T21:41:55.001Z,79.53
2022-11-20T21:44:31.016Z,79.67
2022-11-20T21:47:00.165Z,80.11
2022-11-20T21:49:28.374Z,80.55
2022-11-20T21:51:57.144Z,80.13
2022-11-20T21:54:25.592Z,80.14
2022-11-20T21:56:55.405Z,80.18
2022-11-20T21:59:23.845Z,80.34
2022-11-20T22:01:52.204Z,80.23
2022-11-20T22:04:23.241Z,79.99
2022-11-20T22:06:51.656Z,79.91
2022-11-20T22:09:19.816Z,79.91
2022-11-20T22:11:48.141Z,79.78
2022-11-20T22:14:23.834Z,79.69
2022-11-20T22:16:54.614Z,79.74
2022-11-20T22:19:24.326Z,79.64
2022-11-20T22:21:53.489Z,79.79
2022-11-20T22:24:23.978Z,79.71
2022-11-20T22:26:52.502Z,79.88
2022-11-20T22:29:22.661Z,79.60
2022-11-20T22:31:53.346Z,79.62
2022-11-20T22:34:21.913Z,79.94
2022-11-20T22:36:50.241Z,79.79
2022-11-20T22:39:18.819Z,79.72
2022-11-20T22:41:46.968Z,79.82
2022-11-20T22:44:16.543Z,79.75
2022-11-20T22:46:46.481Z,79.93
2022-11-20T22:49:14.968Z,79.65
2022-11-20T22:51:43.445Z,79.84
2022-11-20T22:54:13.351Z,79.37
2022-11-20T22:56:42.020Z,79.50
2022-11-20T22:59:10.296Z,79.07
2022-11-20T23:01:38.988Z,79.03
2022-11-20T23:04:11.862Z,78.97
2022-11-20T23:06:40.083Z,78.78
2022-11-20T23:09:10.047Z,78.31
2022-11-20T23:11:38.524Z,78.43
2022-11-20T23:14:08.337Z,78.42
2022-11-20T23:16:36.994Z,78.03
2022-11-20T23:19:07.678Z,78.00
2022-11-20T23:21:39.689Z,78.06
2022-11-20T23:24:08.740Z,77.96
2022-11-20T23:26:40.021Z,77.66
2022-11-20T23:29:08.569Z,77.58
2022-11-20T23:31:38.432Z,77.53
2022-11-20T23:34:06.677Z,77.94
2022-11-20T23:36:36.583Z,78.14
2022-11-20T23:39:05.000Z,77.93
2022-11-20T23:41:33.162Z,78.13
2022-11-20T23:44:01.318Z,78.18
2022-11-20T23:46:29.890Z,78.19
2022-11-20T23:48:58.127Z,77.80
2022-11-20T23:51:26.941Z,77.91
2022-11-20T23:54:00.560Z,77.66
2022-11-20T23:56:32.549Z,78.00
2022-11-20T23:59:01.009Z,77.65
